Mansfield, WA (98830)

7:31 AM PDT on August 27, 2014 (GMT -0700)
RAWS DOUGLAS WA US | Change Station
CLOSE
Current Station
Personal Weather Station
Location: Waterville, WA
Elevation: 2529 ft
Nearby Weather Stations

Elev 2529 ft 47.62 °N, 119.90 °W | Updated 43 minutes ago

Clear
Clear
60 °F
Feels Like 60 °F
N
4
Wind Variable Wind from NW
Gusts 7.0 mph

Today
High -- | Low -- °F
--% Chance of Precip.
Yesterday
High -- | Low -- °F
Precip. -- in
6:10 AM 7:48 PM
Waxing Crescent, 4% visible
Pressure 29.97 in
Visibility 10.0 miles
Clouds Clear
Dew Point 51 °F
Humidity 71%
Rainfall 0.00 in
Snow Depth Not available.
UV 0 out of 12
Pollen 4.80 out of 12
Air Quality Not available.
Flu Activity Not available.
METAR KEPH 271353Z AUTO 36007KT 10SM CLR 17/08 A2999 RMK AO2 SLP149 T01670083

More Conditions Fewer Conditions

Pressure 29.97 in
Visibility 10.0 miles
Clouds Clear
Dew Point 51 °F
Humidity 71%
Rainfall 0.00 in
Snow Depth Not available.
UV 0 out of 12
Pollen 4.80 out of 12
Air Quality Not available.
Flu Activity Not available.
METAR KEPH 271353Z AUTO 36007KT 10SM CLR 17/08 A2999 RMK AO2 SLP149 T01670083

More Conditions Fewer Conditions

10-Day Weather Forecast

Almanac

Astronomy

Aug. 27, 2014 Rise Set
Actual Time 6:10 AM PDT 7:48 PM PDT
Civil Twilight 5:37 AM PDT 8:21 PM PDT
Nautical Twilight 4:57 AM PDT 9:00 PM PDT
Astronomical Twilight 4:14 AM PDT 9:43 PM PDT
Moon 8:23 AM PDT 8:29 PM PDT
Length of Visible Light 14h 43m
Length of Day
13h 38m
Tomorrow will be 3m 18s shorter.
Waxing Crescent, 4% of the Moon is Illuminated
Today
Waxing Crescent
Sep 2
First Quarter
Sep 8
Full
Sep 15
Last Quarter
Sep 24
New

Today's Extremes

State Highs State Lows

Community

WunderPhotos

Upload Photos

1,747,695 photos uploaded!

Nearby

Snow Depth

Station Depth Elevation
Moses Mountain 0 in 5300 ft
Upper Wheeler 0 in 4400 ft
Trough 0 in 5300 ft
Grouse Camp 0 in 5380 ft
Lyman Lake 0 in 5900 ft

Earthquake Activity

City Distance Mag. Time & Date
No recent earthquake activity has been reported nearby.
Minimum magnitude displayed is 2.5.

Coastal Water Temperatures

Place Temperature
No Stations Reporting

Nearby Weather Stations